createdAt,value
2022-11-03T00:03:50.555Z,1.9
2022-11-03T00:05:52.476Z,2.7
2022-11-03T00:07:54.438Z,1.7
2022-11-03T00:09:56.329Z,1.7
2022-11-03T00:11:58.260Z,2.9
2022-11-03T00:14:03.275Z,2.6
2022-11-03T00:16:05.191Z,1.8
2022-11-03T00:18:07.131Z,1.4
2022-11-03T00:20:09.057Z,2.7
2022-11-03T00:22:10.995Z,1.7
2022-11-03T00:24:12.925Z,2
2022-11-03T00:26:14.810Z,1.9
2022-11-03T00:28:19.882Z,2.2
2022-11-03T00:30:21.828Z,2
2022-11-03T00:32:23.835Z,2.1
2022-11-03T00:34:25.734Z,1.7
2022-11-03T00:36:27.659Z,1.3
2022-11-03T00:38:29.541Z,3.7
2022-11-03T00:40:31.469Z,2
2022-11-03T00:42:36.526Z,2.1
2022-11-03T00:44:38.456Z,1.8
2022-11-03T00:46:40.400Z,2.3
2022-11-03T00:47:43.012Z,3.1
2022-11-03T00:49:44.942Z,2.7
2022-11-03T00:51:46.847Z,2.6
2022-11-03T00:53:48.764Z,2.3
2022-11-03T00:55:53.815Z,2.2
2022-11-03T00:57:55.841Z,2.8
2022-11-03T00:59:57.764Z,2.1
2022-11-03T01:01:59.787Z,2.2
2022-11-03T01:04:01.640Z,2.9
2022-11-03T01:06:03.548Z,2.1
2022-11-03T01:08:05.455Z,2.6
2022-11-03T01:10:10.502Z,2.5
2022-11-03T01:12:12.428Z,2
2022-11-03T01:14:14.458Z,1.5
2022-11-03T01:16:16.494Z,2.7
2022-11-03T01:18:18.498Z,3.1
2022-11-03T01:20:20.432Z,2
2022-11-03T01:22:22.451Z,1.5
2022-11-03T01:24:27.694Z,2.5
2022-11-03T01:26:29.605Z,1.9
2022-11-03T01:28:31.549Z,2
2022-11-03T01:30:33.457Z,2.1
2022-11-03T01:32:35.457Z,1.7
2022-11-03T01:34:37.403Z,2.1
2022-11-03T01:36:39.313Z,1.9
2022-11-03T01:38:44.372Z,1.3
2022-11-03T01:40:46.281Z,1.6
2022-11-03T01:42:48.335Z,2.9
2022-11-03T01:45:16.951Z,2.2
2022-11-03T01:47:18.901Z,2.1
2022-11-03T01:49:20.896Z,1.7
2022-11-03T01:51:25.961Z,2.2
2022-11-03T01:53:27.888Z,2.1
2022-11-03T01:55:29.817Z,3.2
2022-11-03T01:57:31.719Z,1.2
2022-11-03T01:59:33.626Z,2.1
2022-11-03T02:05:42.753Z,1.9
2022-11-03T02:07:44.764Z,2.2
2022-11-03T02:11:48.703Z,2.8
2022-11-03T02:13:50.727Z,2.6
2022-11-03T02:15:52.773Z,2.3
2022-11-03T02:19:59.948Z,2.7
2022-11-03T02:22:01.952Z,2.2
2022-11-03T02:24:03.878Z,2.7
2022-11-03T02:28:07.756Z,2.2
2022-11-03T02:30:09.745Z,1.9
2022-11-03T02:32:11.708Z,2.4
2022-11-03T02:34:16.721Z,1.6
2022-11-03T02:36:18.645Z,1.7
2022-11-03T02:38:20.581Z,2.5
2022-11-03T02:39:23.102Z,2.4
2022-11-03T02:41:25.024Z,2.3
2022-11-03T02:49:36.183Z,1.6
2022-11-03T02:51:38.085Z,2.5
2022-11-03T02:53:40.108Z,2.7
2022-11-03T03:01:51.056Z,2.8
2022-11-03T03:03:52.844Z,1.9
2022-11-03T03:12:00.771Z,3.4
2022-11-03T03:18:09.955Z,1.6
2022-11-03T03:20:11.995Z,2.3
2022-11-03T03:22:14.030Z,2.6
2022-11-03T03:24:15.930Z,2
2022-11-03T03:26:17.861Z,1.9
2022-11-03T03:28:19.757Z,1.7
2022-11-03T03:30:24.829Z,1.7
2022-11-03T03:32:26.835Z,1.8
2022-11-03T03:34:35.401Z,1.7
2022-11-03T03:35:31.294Z,1.9
2022-11-03T03:37:33.236Z,2.1
2022-11-03T03:39:35.248Z,2
2022-11-03T03:41:37.159Z,1.5
2022-11-03T03:43:42.341Z,1.7
2022-11-03T03:45:44.279Z,1.9
2022-11-03T03:47:46.181Z,2.3
2022-11-03T03:49:48.126Z,2.6
2022-11-03T03:51:50.150Z,2.2
2022-11-03T03:53:52.056Z,1.7
2022-11-03T03:55:53.961Z,2.3
2022-11-03T03:58:00.447Z,1.8
2022-11-03T04:00:00.975Z,1.6
2022-11-03T04:02:03.082Z,1.5
2022-11-03T04:04:04.904Z,2.3
2022-11-03T04:06:06.839Z,2.1
2022-11-03T04:08:09.150Z,1.7
2022-11-03T04:10:10.683Z,1.5
2022-11-03T04:12:15.751Z,1.4
2022-11-03T04:14:17.683Z,1.8
2022-11-03T04:16:19.632Z,2.4
2022-11-03T04:18:21.646Z,2
2022-11-03T04:20:23.671Z,2
2022-11-03T04:22:25.611Z,1.4
2022-11-03T04:24:27.612Z,2.1
2022-11-03T04:26:32.650Z,1.9
2022-11-03T04:28:34.584Z,4.4
2022-11-03T04:30:36.498Z,1.9
2022-11-03T04:31:39.109Z,2.4
2022-11-03T04:33:41.039Z,1.6
2022-11-03T04:35:42.947Z,2.2
2022-11-03T04:37:47.392Z,2
2022-11-03T04:39:50.039Z,2.1
2022-11-03T04:41:52.034Z,2.3
2022-11-03T04:43:53.974Z,1.7
2022-11-03T04:45:55.907Z,1.4
2022-11-03T04:47:57.831Z,2.1
2022-11-03T04:49:59.765Z,1.2
2022-11-03T04:52:01.679Z,1.7
2022-11-03T04:54:08.391Z,1.8
2022-11-03T04:56:10.273Z,1.8
2022-11-03T04:58:12.281Z,1.8
2022-11-03T05:06:20.159Z,1.2
2022-11-03T05:08:25.193Z,2.8
2022-11-03T05:10:27.125Z,3.6
2022-11-03T05:12:29.046Z,2.1
2022-11-03T05:14:31.008Z,2.4
2022-11-03T05:16:33.004Z,1.7
2022-11-03T05:18:34.919Z,1
2022-11-03T05:20:36.944Z,2
2022-11-03T05:22:42.001Z,1.9
2022-11-03T05:24:43.918Z,4.4
2022-11-03T05:26:46.057Z,2.2
2022-11-03T05:29:14.564Z,2.5
2022-11-03T05:35:23.438Z,1.5
2022-11-03T05:37:26.728Z,3.3
2022-11-03T05:43:31.197Z,2.1
2022-11-03T05:45:33.121Z,1.7
2022-11-03T05:47:35.152Z,3.8
2022-11-03T05:49:40.185Z,2.9
2022-11-03T05:51:42.140Z,1.7
2022-11-03T05:53:44.061Z,2.2
2022-11-03T05:55:45.987Z,1.8
2022-11-03T05:57:47.922Z,1.9
2022-11-03T05:59:49.820Z,1.8
2022-11-03T06:01:51.959Z,2.2
2022-11-03T06:03:56.904Z,3.6
2022-11-03T06:05:58.930Z,2.1
2022-11-03T06:08:00.871Z,2.3
2022-11-03T06:10:02.878Z,2.6
2022-11-03T06:12:04.804Z,1.5
2022-11-03T06:14:06.728Z,2.4
2022-11-03T06:16:08.628Z,2.2
2022-11-03T06:18:13.685Z,2
2022-11-03T06:20:15.575Z,2
2022-11-03T06:22:17.511Z,3.2
2022-11-03T06:23:20.040Z,2
2022-11-03T06:25:21.951Z,1.5
2022-11-03T06:27:23.886Z,2.1
2022-11-03T06:29:25.784Z,1.6
2022-11-03T06:31:30.929Z,1.8
2022-11-03T06:33:32.849Z,1.9
2022-11-03T06:35:34.870Z,1.2
2022-11-03T06:37:36.789Z,3.4
2022-11-03T06:39:38.713Z,3.7
2022-11-03T06:41:40.621Z,3.4
2022-11-03T06:43:42.648Z,2.1
2022-11-03T06:45:47.817Z,2.2
2022-11-03T06:47:49.736Z,1.6
2022-11-03T06:49:51.667Z,2.1
2022-11-03T06:51:53.609Z,2.5
2022-11-03T06:53:55.513Z,2
2022-11-03T06:55:57.421Z,2.5
2022-11-03T06:57:59.443Z,1.9
2022-11-03T07:00:28.646Z,2.7
2022-11-03T07:02:06.486Z,2.4
2022-11-03T07:04:08.292Z,2.1
2022-11-03T07:06:10.220Z,2.2
2022-11-03T07:08:12.267Z,1.8
2022-11-03T07:10:14.151Z,2
2022-11-03T07:12:16.080Z,1.8
2022-11-03T07:14:21.106Z,1.9
2022-11-03T07:16:23.045Z,3.9
2022-11-03T07:18:24.979Z,2.2
2022-11-03T07:23:31.330Z,2.5
2022-11-03T07:25:33.264Z,2
2022-11-03T07:27:38.290Z,2.2
2022-11-03T07:29:40.200Z,2.3
2022-11-03T07:31:42.106Z,2.2
2022-11-03T07:33:44.076Z,1.5
2022-11-03T07:36:13.309Z,2.3
2022-11-03T07:37:48.002Z,2.1
2022-11-03T07:39:49.909Z,1.4
2022-11-03T07:41:54.943Z,2.1
2022-11-03T07:43:56.875Z,2.1
2022-11-03T07:45:58.784Z,1.5
2022-11-03T07:48:04.296Z,2
2022-11-03T07:50:02.659Z,1.9
2022-11-03T07:52:04.573Z,2.9
2022-11-03T07:54:06.493Z,2.3
2022-11-03T07:56:11.583Z,2
2022-11-03T07:58:13.457Z,1.8
2022-11-03T08:00:15.391Z,1.7
2022-11-03T08:02:17.443Z,1.9
2022-11-03T08:04:19.229Z,1.9
2022-11-03T08:06:21.129Z,2.4
2022-11-03T08:08:23.072Z,2.1
2022-11-03T08:10:28.110Z,2.5
2022-11-03T08:12:30.024Z,1.8
2022-11-03T08:14:31.944Z,2
2022-11-03T08:15:34.468Z,1.8
2022-11-03T08:17:36.405Z,2.1
2022-11-03T08:19:38.374Z,1.3
2022-11-03T08:21:40.313Z,2.2
2022-11-03T08:23:47.542Z,2.4
2022-11-03T08:29:51.075Z,2.6
2022-11-03T08:31:53.012Z,3.5
2022-11-03T08:38:01.933Z,2.3
2022-11-03T08:40:03.846Z,2.3
2022-11-03T08:42:05.785Z,2.2
2022-11-03T08:44:07.709Z,2.4
2022-11-03T08:46:15.749Z,2.4
2022-11-03T08:48:11.504Z,2
2022-11-03T08:50:13.419Z,9.1
2022-11-03T08:52:18.470Z,2.7
2022-11-03T08:54:20.397Z,2.1
2022-11-03T08:56:22.881Z,2.4
2022-11-03T08:58:24.205Z,1.9
2022-11-03T09:00:26.123Z,1.3
2022-11-03T09:04:29.980Z,2.1
2022-11-03T09:06:34.999Z,2.2
2022-11-03T09:10:42.337Z,1.6
2022-11-03T09:13:07.873Z,2.5
2022-11-03T09:15:09.375Z,2.1
2022-11-03T09:17:11.259Z,2.1
2022-11-03T09:19:16.304Z,2.7
2022-11-03T09:21:18.229Z,3.2
2022-11-03T09:25:22.044Z,2
2022-11-03T09:29:25.859Z,2.8
2022-11-03T09:31:27.763Z,2.5
2022-11-03T09:33:32.813Z,2
2022-11-03T09:35:34.701Z,2.5
2022-11-03T09:39:38.531Z,1.4
2022-11-03T09:41:57.272Z,2.7
2022-11-03T09:43:42.349Z,2.3
2022-11-03T09:45:44.251Z,2.8
2022-11-03T09:47:49.289Z,2.4
2022-11-03T09:49:51.228Z,1.9
2022-11-03T09:51:53.108Z,3.2
2022-11-03T09:53:55.028Z,2.4
2022-11-03T09:55:56.917Z,2.3
2022-11-03T09:57:58.859Z,2.5
2022-11-03T10:00:00.735Z,2.3
2022-11-03T10:02:05.921Z,2.7
2022-11-03T10:07:12.162Z,2.5
2022-11-03T10:09:14.036Z,1.7
2022-11-03T10:11:15.926Z,1.7
2022-11-03T10:13:17.836Z,1.7
2022-11-03T10:15:22.991Z,1.6
2022-11-03T10:17:24.778Z,1.6
2022-11-03T10:19:26.668Z,2.2
2022-11-03T10:21:28.597Z,2.4
2022-11-03T10:23:30.517Z,2.9
2022-11-03T10:25:32.401Z,1.7
2022-11-03T10:27:34.296Z,2
2022-11-03T10:29:40.516Z,2
2022-11-03T10:31:41.246Z,3.3
2022-11-03T10:33:43.133Z,1.8
2022-11-03T10:35:45.052Z,2.8
2022-11-03T10:37:46.948Z,2.3
2022-11-03T10:39:48.855Z,2.1
2022-11-03T10:41:50.760Z,1.7
2022-11-03T10:43:55.792Z,2
2022-11-03T10:45:59.236Z,1.8
2022-11-03T10:48:01.169Z,2.8
2022-11-03T10:50:03.010Z,2.1
2022-11-03T10:52:04.898Z,2.3
2022-11-03T10:54:06.791Z,2.1
2022-11-03T10:56:08.705Z,2
2022-11-03T10:58:13.733Z,2.7
2022-11-03T11:00:15.705Z,2.8
2022-11-03T11:02:17.660Z,1.8
2022-11-03T11:03:20.872Z,2.6
2022-11-03T11:05:21.941Z,2
2022-11-03T11:07:23.855Z,2.3
2022-11-03T11:09:25.786Z,2
2022-11-03T11:11:30.799Z,1.6
2022-11-03T11:13:32.692Z,2.3
2022-11-03T11:15:34.577Z,2.1
2022-11-03T11:17:36.495Z,1.6
2022-11-03T11:19:38.375Z,2
2022-11-03T11:21:40.295Z,2.1
2022-11-03T11:23:42.192Z,2.8
2022-11-03T11:25:47.236Z,2
2022-11-03T11:27:51.926Z,1.9
2022-11-03T11:29:51.040Z,2.6
2022-11-03T11:31:52.922Z,2.4
2022-11-03T11:33:54.824Z,1.8
2022-11-03T11:35:59.249Z,1.9
2022-11-03T11:37:58.624Z,1.1
2022-11-03T11:40:03.666Z,1.5
2022-11-03T11:42:05.543Z,2.7
2022-11-03T11:44:07.430Z,1.7
2022-11-03T11:46:09.447Z,1.7
2022-11-03T11:48:14.681Z,2
2022-11-03T11:50:13.378Z,1.5
2022-11-03T11:52:18.759Z,1.7
2022-11-03T11:54:20.068Z,1.8
2022-11-03T11:56:21.971Z,1.7
2022-11-03T11:58:23.836Z,2
2022-11-03T11:59:26.449Z,1.9
2022-11-03T12:01:28.303Z,1.8
2022-11-03T12:03:30.205Z,1.9
2022-11-03T12:05:32.073Z,1.9
2022-11-03T12:07:37.094Z,2.1
2022-11-03T12:09:38.982Z,2.3
2022-11-03T12:11:45.556Z,1.3
2022-11-03T12:13:42.762Z,1.4
2022-11-03T12:21:53.476Z,1.1
2022-11-03T12:23:55.393Z,2.4
2022-11-03T12:32:02.943Z,1.4
2022-11-03T12:34:04.838Z,2.2
2022-11-03T12:40:13.653Z,2.7
2022-11-03T12:46:19.309Z,1.4
2022-11-03T12:48:21.178Z,1.9
2022-11-03T12:50:26.210Z,2.3
2022-11-03T12:52:28.088Z,2.2
2022-11-03T12:54:29.961Z,1.8
2022-11-03T12:56:58.465Z,2.2
2022-11-03T12:59:00.352Z,1.6
2022-11-03T13:01:02.401Z,2.1
2022-11-03T13:03:07.536Z,4.8
2022-11-03T13:05:09.137Z,1.8
2022-11-03T13:07:11.019Z,3.1
2022-11-03T13:09:12.888Z,1.2
2022-11-03T13:11:14.765Z,2.5
2022-11-03T13:13:16.644Z,1.7
2022-11-03T13:15:18.539Z,1.5
2022-11-03T13:17:23.539Z,1.9
2022-11-03T13:19:25.436Z,1.9
2022-11-03T13:21:27.320Z,2.1
2022-11-03T13:23:29.222Z,1.6
2022-11-03T13:25:31.132Z,1.5
2022-11-03T13:27:32.966Z,1.7
2022-11-03T13:29:35.959Z,1.8
2022-11-03T13:31:39.858Z,2
2022-11-03T13:33:41.733Z,1.7
2022-11-03T13:35:43.628Z,2.5
2022-11-03T13:37:45.470Z,1.4
2022-11-03T13:39:47.322Z,1.2
2022-11-03T13:41:49.178Z,1.6
2022-11-03T13:43:51.038Z,1.4
2022-11-03T13:50:13.539Z,1.4
2022-11-03T13:51:02.314Z,1.6
2022-11-03T13:59:28.577Z,1.3
2022-11-03T14:05:18.466Z,1.7
2022-11-03T14:07:20.355Z,1.2
2022-11-03T14:09:22.264Z,1.2
2022-11-03T14:11:24.103Z,1.4
2022-11-03T14:13:29.130Z,2.2
2022-11-03T14:15:31.012Z,1.2
2022-11-03T14:17:32.873Z,1.8
2022-11-03T14:19:41.574Z,1.6
2022-11-03T14:21:36.629Z,2.2
2022-11-03T14:23:38.503Z,1.7
2022-11-03T14:25:40.373Z,1
2022-11-03T14:27:45.474Z,1.5
2022-11-03T14:29:47.310Z,1.8
2022-11-03T14:31:49.165Z,1.3
2022-11-03T14:33:51.061Z,1.2
2022-11-03T14:35:52.945Z,2
2022-11-03T14:37:54.805Z,2.4
2022-11-03T14:39:56.723Z,1.6
2022-11-03T14:42:01.772Z,1.4
2022-11-03T14:44:03.624Z,2.1
2022-11-03T14:46:05.602Z,1.5
2022-11-03T14:51:11.816Z,1.8
2022-11-03T14:53:13.703Z,2.5
2022-11-03T15:03:26.289Z,1.3
2022-11-03T15:05:28.204Z,1.6
2022-11-03T15:09:35.114Z,1.5
2022-11-03T15:11:37.023Z,1.5
2022-11-03T15:19:44.583Z,1.5
2022-11-03T15:27:55.288Z,2.2
2022-11-03T15:38:08.221Z,1.8
2022-11-03T15:42:11.697Z,2.3
2022-11-03T15:43:14.222Z,2.3
2022-11-03T15:45:16.164Z,1.6
2022-11-03T15:47:18.033Z,1.9
2022-11-03T15:49:19.950Z,2.5
2022-11-03T15:51:25.015Z,1.6
2022-11-03T15:53:26.880Z,1.7
2022-11-03T15:55:28.790Z,2.2
2022-11-03T16:03:36.428Z,2.3
2022-11-03T16:26:03.698Z,2.8
2022-11-03T16:28:05.881Z,2.7
2022-11-03T16:30:07.511Z,2.6
2022-11-03T16:34:14.443Z,1.9
2022-11-03T16:36:16.377Z,2.4
2022-11-03T16:38:19.814Z,2.2
2022-11-03T16:40:48.345Z,2.6
2022-11-03T16:42:50.278Z,4.2
2022-11-03T16:44:52.180Z,2.9
2022-11-03T16:46:57.208Z,2.8
2022-11-03T16:51:01.034Z,2.5
2022-11-03T16:53:02.930Z,3
2022-11-03T16:55:04.874Z,2
2022-11-03T16:57:06.814Z,2.6
2022-11-03T16:59:08.726Z,3.3
2022-11-03T17:01:13.936Z,3.8
2022-11-03T17:03:15.711Z,2.7
2022-11-03T17:05:17.773Z,3.5
2022-11-03T17:07:19.542Z,2.9
2022-11-03T17:09:21.462Z,2.8
2022-11-03T17:11:23.350Z,2.9
2022-11-03T17:13:25.258Z,2.4
2022-11-03T17:15:30.325Z,3.1
2022-11-03T17:17:32.228Z,2.3
2022-11-03T17:19:34.154Z,4
2022-11-03T17:21:36.082Z,2.8
2022-11-03T17:23:37.991Z,3.7
2022-11-03T17:25:39.888Z,2.8
2022-11-03T17:27:41.810Z,3.4
2022-11-03T17:29:46.869Z,3.2
2022-11-03T17:31:48.784Z,2.9
2022-11-03T17:33:50.741Z,4.3
2022-11-03T17:34:53.223Z,4.4
2022-11-03T17:36:55.166Z,3.2
2022-11-03T17:38:57.046Z,3.7
2022-11-03T17:40:58.958Z,5.3
2022-11-03T17:43:04.135Z,3.3
2022-11-03T17:45:05.948Z,4.3
2022-11-03T17:47:07.847Z,4.1
2022-11-03T17:49:09.760Z,5.7
2022-11-03T17:51:11.671Z,4
2022-11-03T17:53:13.616Z,5.4
2022-11-03T17:55:15.545Z,4.9
2022-11-03T17:57:20.586Z,5.8
2022-11-03T17:59:22.514Z,5.4
2022-11-03T18:01:24.543Z,5.4
2022-11-03T18:03:26.368Z,6.3
2022-11-03T18:05:28.399Z,5.4
2022-11-03T18:07:30.313Z,6.3
2022-11-03T18:09:32.234Z,5.8
2022-11-03T18:11:37.466Z,6.5
2022-11-03T18:13:39.389Z,6.7
2022-11-03T18:15:41.307Z,5.4
2022-11-03T18:17:43.240Z,5.5
2022-11-03T18:19:45.169Z,6.8
2022-11-03T18:21:47.103Z,6.4
2022-11-03T18:23:49.013Z,5.6
2022-11-03T18:25:54.054Z,7.4
2022-11-03T18:27:55.960Z,7
2022-11-03T18:29:57.891Z,5.8
2022-11-03T18:33:02.434Z,7.9
2022-11-03T18:35:04.357Z,7
2022-11-03T18:37:06.297Z,8.2
2022-11-03T18:39:11.461Z,7.2
2022-11-03T18:41:13.354Z,7.2
2022-11-03T18:43:15.309Z,8.3
2022-11-03T18:45:17.211Z,8.2
2022-11-03T18:47:19.127Z,8.8
2022-11-03T18:49:21.018Z,7
2022-11-03T18:53:28.103Z,8.3
2022-11-03T18:55:30.007Z,9.3
2022-11-03T18:57:31.913Z,7.6
2022-11-03T18:59:33.846Z,9.4
2022-11-03T19:01:35.921Z,9
2022-11-03T19:03:37.681Z,8.9
2022-11-03T19:05:39.611Z,8
2022-11-03T19:07:44.644Z,8.5
2022-11-03T19:09:46.542Z,7.7
2022-11-03T19:11:48.486Z,8.2
2022-11-03T19:15:52.405Z,8.8
2022-11-03T19:19:56.321Z,9.1
2022-11-03T19:22:01.365Z,9
2022-11-03T19:24:03.276Z,7.3
2022-11-03T19:26:05.223Z,8.5
2022-11-03T19:27:07.726Z,8.5
2022-11-03T19:29:09.627Z,8.3
2022-11-03T19:31:11.524Z,8.4
2022-11-03T19:33:13.448Z,8.4
2022-11-03T19:35:18.599Z,8.6
2022-11-03T19:37:20.513Z,7.2
2022-11-03T19:39:22.475Z,7.9
2022-11-03T19:41:24.344Z,8.2
2022-11-03T19:43:29.335Z,8.6
2022-11-03T19:45:28.178Z,7.5
2022-11-03T19:47:32.704Z,7.2
2022-11-03T19:49:35.275Z,6.8
2022-11-03T19:51:37.189Z,7.3
2022-11-03T19:53:43.218Z,8.4
2022-11-03T19:55:41.042Z,8.1
2022-11-03T19:57:42.927Z,7.6
2022-11-03T19:59:44.816Z,5.9
2022-11-03T20:01:46.891Z,7.6
2022-11-03T20:05:53.694Z,6.9
2022-11-03T20:07:55.583Z,6.1
2022-11-03T20:09:57.511Z,7.7
2022-11-03T20:11:59.398Z,7.2
2022-11-03T20:14:01.334Z,7.3
2022-11-03T20:16:03.285Z,6.2
2022-11-03T20:18:08.290Z,6.1
2022-11-03T20:20:10.185Z,7.6
2022-11-03T20:22:12.085Z,6.6
2022-11-03T20:24:40.719Z,6.5
2022-11-03T20:26:42.622Z,5.9
2022-11-03T20:28:44.536Z,6.2
2022-11-03T20:32:51.506Z,6.1
2022-11-03T20:34:53.403Z,6.3
2022-11-03T20:36:55.318Z,6.9
2022-11-03T20:38:57.236Z,5.6
2022-11-03T20:40:59.158Z,6.6
2022-11-03T20:43:01.079Z,4.9
2022-11-03T20:45:06.106Z,6.2
2022-11-03T20:47:08.015Z,5.7
2022-11-03T20:49:09.918Z,5.1
2022-11-03T20:51:11.832Z,5.1
2022-11-03T20:53:13.754Z,4.8
2022-11-03T20:55:15.663Z,6.2
2022-11-03T20:57:17.574Z,4.5
2022-11-03T20:59:22.635Z,4.4
2022-11-03T21:01:24.651Z,6.1
2022-11-03T21:05:28.359Z,5.6
2022-11-03T21:07:30.323Z,5.3
2022-11-03T21:09:32.213Z,5.7
2022-11-03T21:11:34.133Z,5.1
2022-11-03T21:13:39.297Z,5.8
2022-11-03T21:15:52.386Z,5.6
2022-11-03T21:17:43.114Z,5.2
2022-11-03T21:20:47.557Z,6.1
2022-11-03T21:22:54.135Z,6.5
2022-11-03T21:24:51.382Z,4.9
2022-11-03T21:26:56.431Z,4.8
2022-11-03T21:28:58.366Z,7.2
2022-11-03T21:31:00.266Z,6.5
2022-11-03T21:33:02.178Z,5.7
2022-11-03T21:35:04.090Z,6.5
2022-11-03T21:37:06.076Z,6.2
2022-11-03T21:39:07.986Z,6.5
2022-11-03T21:41:13.054Z,6.2
2022-11-03T21:43:14.956Z,7.2
2022-11-03T21:45:16.873Z,5.8
2022-11-03T21:47:18.787Z,7.2
2022-11-03T21:49:20.674Z,6.8
2022-11-03T21:53:24.545Z,7.1
2022-11-03T21:55:29.570Z,6.4
2022-11-03T21:57:31.517Z,6
2022-11-03T21:59:33.426Z,6.7
2022-11-03T22:01:35.452Z,5.2
2022-11-03T22:03:37.286Z,5.5
2022-11-03T22:05:39.202Z,6.4
2022-11-03T22:07:41.127Z,5.3
2022-11-03T22:09:46.177Z,5.6
2022-11-03T22:11:48.098Z,6.2
2022-11-03T22:13:49.994Z,6.5
2022-11-03T22:14:52.634Z,5
2022-11-03T22:16:54.601Z,6.2
2022-11-03T22:18:56.446Z,5.2
2022-11-03T22:20:58.502Z,4.3
2022-11-03T22:23:03.409Z,4.7
2022-11-03T22:25:05.334Z,5
2022-11-03T22:27:07.246Z,5.1
2022-11-03T22:29:10.732Z,5
2022-11-03T22:31:12.583Z,4.5
2022-11-03T22:33:14.582Z,4
2022-11-03T22:35:16.498Z,3.7
2022-11-03T22:37:21.560Z,5.3
2022-11-03T22:39:23.504Z,4.9
2022-11-03T22:41:25.390Z,4.1
2022-11-03T22:43:27.306Z,4.5
2022-11-03T22:45:29.243Z,3.4
2022-11-03T22:47:31.299Z,3.8
2022-11-03T22:49:33.226Z,3.9
2022-11-03T22:51:38.278Z,3.5
2022-11-03T22:53:40.287Z,2.8
2022-11-03T22:55:42.233Z,3.7
2022-11-03T22:57:44.224Z,3.4
2022-11-03T22:59:46.165Z,3.7
2022-11-03T23:01:48.229Z,4.2
2022-11-03T23:03:49.998Z,4.5
2022-11-03T23:05:55.037Z,3.8
2022-11-03T23:07:56.953Z,3.6
2022-11-03T23:09:58.876Z,4.1
2022-11-03T23:11:01.432Z,2.9
2022-11-03T23:19:12.408Z,3.6
2022-11-03T23:21:14.331Z,4.2
2022-11-03T23:25:18.293Z,4.4
2022-11-03T23:27:20.175Z,4.8
2022-11-03T23:29:22.063Z,4.2
2022-11-03T23:31:24.008Z,4
2022-11-03T23:33:29.121Z,5.6
2022-11-03T23:35:31.049Z,4.1
2022-11-03T23:37:32.993Z,4.5
2022-11-03T23:39:34.902Z,5.2
2022-11-03T23:41:36.836Z,4.7
2022-11-03T23:43:38.744Z,4.4
2022-11-03T23:45:40.773Z,4.5
2022-11-03T23:47:45.805Z,3.9
2022-11-03T23:49:47.826Z,3.8
2022-11-03T23:51:49.846Z,4
2022-11-03T23:53:51.852Z,4.2
2022-11-03T23:55:53.783Z,4.6
2022-11-03T23:57:55.692Z,3.8
2022-11-03T23:59:57.785Z,3.8
